This is the latest recevied weather packets stored in our database for station/object I3RKE-10. If no packets are shown the sender has not sent any weather packets the latest 10 day(s).
| Time | Temp. | Humidity | Pressure | Rain* | Wind** | Luminosity | Snow |
|---|---|---|---|---|---|---|---|
| 1777609560 | 7.78° C | 52% | 1021.3 hPa | - | - | - | - |
| 1777608660 | 7.22° C | 52% | 1021.2 hPa | - | - | - | - |
| 1777607760 | 7.78° C | 51% | 1021.1 hPa | - | - | - | - |
| 1777606860 | 7.78° C | 50% | 1021.1 hPa | - | - | - | - |
| 1777605960 | 7.78° C | 51% | 1021.1 hPa | - | - | - | - |
| 1777605060 | 7.78° C | 51% | 1021.2 hPa | - | - | - | - |
| 1777604160 | 7.78° C | 53% | 1021.2 hPa | - | - | - | - |
| 1777603260 | 7.78° C | 53% | 1021.2 hPa | - | - | - | - |
| 1777602359 | 7.78° C | 54% | 1021.3 hPa | - | - | - | - |
| 1777601459 | 7.78° C | 54% | 1021.4 hPa | - | - | - | - |
| 1777587058 | 10° C | 53% | 1021.2 hPa | - | - | - | - |
| 1777586158 | 10° C | 53% | 1021 hPa | - | - | - | - |
| 1777584358 | 12.22° C | 44% | 1020.5 hPa | - | - | - | - |
| 1777583458 | 11.11° C | 48% | 1020.3 hPa | - | - | - | - |
| 1777580757 | 11.67° C | 49% | 1019.9 hPa | - | - | - | - |
| 1777579857 | 12.22° C | 49% | 1019.6 hPa | - | - | - | - |
| 1777577157 | 13.89° C | 40% | 1018.9 hPa | - | - | - | - |
| 1777576257 | 16.67° C | 27% | 1018.5 hPa | - | - | - | - |
| 1777575357 | 17.78° C | 26% | 1018.3 hPa | - | - | - | - |
| 1777574457 | 17.78° C | 26% | 1018.1 hPa | - | - | - | - |
| 1777573557 | 18.33° C | 25% | 1017.9 hPa | - | - | - | - |
| 1777569956 | 25.56° C | 17% | 1017.4 hPa | - | - | - | - |
| 1777566356 | 32.22° C | 13% | 1017 hPa | - | - | - | - |
| 1777565456 | 31.67° C | 14% | 1017 hPa | - | - | - | - |
| 1777564556 | 32.78° C | 13% | 1017 hPa | - | - | - | - |
* Rain since midnight (hover to see other rain measurements)
** Current wind speed in m/s (hover to see current wind gust speed)